createdAt,value
2018-04-14T00:00:39.644Z,96.72
2018-04-14T00:03:07.153Z,96.64
2018-04-14T00:05:34.650Z,98.09
2018-04-14T00:08:02.163Z,98.93
2018-04-14T00:10:29.668Z,100.00
2018-04-14T00:12:57.198Z,100.00
2018-04-14T00:15:24.689Z,100.00
2018-04-14T00:17:52.194Z,100.00
2018-04-14T00:20:19.712Z,100.00
2018-04-14T00:22:47.206Z,100.00
2018-04-14T00:25:14.737Z,100.00
2018-04-14T00:27:42.229Z,100.00
2018-04-14T00:30:09.724Z,100.00
2018-04-14T00:32:37.241Z,100.00
2018-04-14T00:35:04.729Z,100.00
2018-04-14T00:37:32.261Z,100.00
2018-04-14T00:39:59.769Z,100.00
2018-04-14T00:42:27.257Z,100.00
2018-04-14T00:44:54.788Z,100.00
2018-04-14T00:47:22.282Z,100.00
2018-04-14T00:49:49.832Z,100.00
2018-04-14T00:52:17.350Z,100.00
2018-04-14T00:54:44.849Z,100.00
2018-04-14T00:57:12.364Z,100.00
2018-04-14T00:59:39.860Z,100.00
2018-04-14T01:02:07.549Z,100.00
2018-04-14T01:04:35.049Z,100.00
2018-04-14T01:07:02.537Z,100.00
2018-04-14T01:09:30.053Z,100.00
2018-04-14T01:11:57.574Z,100.00
2018-04-14T01:14:25.308Z,100.00
2018-04-14T01:16:52.817Z,100.00
2018-04-14T01:19:20.332Z,100.00
2018-04-14T01:21:47.848Z,100.00
2018-04-14T01:24:15.341Z,100.00
2018-04-14T01:26:42.873Z,100.00
2018-04-14T01:29:10.365Z,100.00
2018-04-14T01:31:37.858Z,100.00
2018-04-14T01:34:05.382Z,100.00
2018-04-14T01:36:32.863Z,99.42
2018-04-14T01:39:00.400Z,98.61
2018-04-14T01:41:27.892Z,98.65
2018-04-14T01:43:55.382Z,99.59
2018-04-14T01:46:22.905Z,99.51
2018-04-14T01:48:50.390Z,99.36
2018-04-14T01:51:18.083Z,100.00
2018-04-14T01:53:45.573Z,100.00
2018-04-14T01:56:13.066Z,100.00
2018-04-14T01:58:40.583Z,100.00
2018-04-14T02:01:08.085Z,100.00
2018-04-14T02:03:35.771Z,99.99
2018-04-14T02:06:03.268Z,99.64
2018-04-14T02:08:30.774Z,99.16
2018-04-14T02:10:58.319Z,99.88
2018-04-14T02:13:25.806Z,99.74
2018-04-14T02:15:53.613Z,100.00
2018-04-14T02:18:21.105Z,100.00
2018-04-14T02:20:48.596Z,100.00
2018-04-14T02:23:16.122Z,100.00
2018-04-14T02:25:43.630Z,100.00
2018-04-14T02:28:11.360Z,100.00
2018-04-14T02:30:38.849Z,99.66
2018-04-14T02:33:06.345Z,99.46
2018-04-14T02:35:33.853Z,99.66
2018-04-14T02:38:01.353Z,100.00
2018-04-14T02:40:29.233Z,99.52
2018-04-14T02:42:56.721Z,98.75
2018-04-14T02:45:24.236Z,97.65
2018-04-14T02:47:51.745Z,97.74
2018-04-14T02:50:19.234Z,97.98
2018-04-14T02:52:46.994Z,97.63
2018-04-14T02:55:14.480Z,97.31
2018-04-14T02:57:41.994Z,97.82
2018-04-14T03:00:09.505Z,96.70
2018-04-14T03:02:37.019Z,97.40
2018-04-14T03:05:04.555Z,97.68
2018-04-14T03:07:32.049Z,97.60
2018-04-14T03:09:59.548Z,97.70
2018-04-14T03:12:27.069Z,97.18
2018-04-14T03:14:54.553Z,96.91
2018-04-14T03:17:22.173Z,97.10
2018-04-14T03:19:49.661Z,97.31
2018-04-14T03:22:17.145Z,97.53
2018-04-14T03:24:44.654Z,96.97
2018-04-14T03:27:12.148Z,97.02
2018-04-14T03:29:39.837Z,97.39
2018-04-14T03:32:07.332Z,97.58
2018-04-14T03:34:34.843Z,98.02
2018-04-14T03:37:02.357Z,98.48
2018-04-14T03:39:29.850Z,97.79
2018-04-14T03:41:57.405Z,97.59
2018-04-14T03:44:24.904Z,97.54
2018-04-14T03:46:52.400Z,97.27
2018-04-14T03:49:19.932Z,97.27
2018-04-14T03:51:47.425Z,97.92
2018-04-14T03:54:15.152Z,98.16
2018-04-14T03:56:42.662Z,98.35
2018-04-14T03:59:10.161Z,98.27
2018-04-14T04:01:37.842Z,98.99
2018-04-14T04:04:05.335Z,99.58
2018-04-14T04:06:33.111Z,99.98
2018-04-14T04:09:00.621Z,99.88
2018-04-14T04:11:28.113Z,100.00
2018-04-14T04:13:55.621Z,99.79
2018-04-14T04:16:23.104Z,98.05
2018-04-14T04:19:02.301Z,96.14
2018-04-14T04:21:41.796Z,95.82
2018-04-14T04:24:21.441Z,95.90
2018-04-14T04:26:48.916Z,95.49
2018-04-14T04:29:16.407Z,95.94
2018-04-14T04:31:43.909Z,96.53
2018-04-14T04:34:11.393Z,96.58
2018-04-14T04:36:39.096Z,96.41
2018-04-14T04:39:06.581Z,96.55
2018-04-14T04:41:34.087Z,96.80
2018-04-14T04:44:01.592Z,96.85
2018-04-14T04:46:29.113Z,96.84
2018-04-14T04:48:56.717Z,96.62
2018-04-14T04:51:24.221Z,97.12
2018-04-14T04:53:51.725Z,97.52
2018-04-14T04:56:19.227Z,97.75
2018-04-14T04:58:46.703Z,97.73
2018-04-14T05:01:14.413Z,97.62
2018-04-14T05:03:41.903Z,97.49
2018-04-14T05:06:09.389Z,98.40
2018-04-14T05:08:36.926Z,97.99
2018-04-14T05:11:04.409Z,98.07
2018-04-14T05:13:32.289Z,98.37
2018-04-14T05:15:59.777Z,97.75
2018-04-14T05:18:27.283Z,97.44
2018-04-14T05:20:54.797Z,97.32
2018-04-14T05:23:22.277Z,98.33
2018-04-14T05:25:49.829Z,99.16
2018-04-14T05:28:17.319Z,98.43
2018-04-14T05:30:44.834Z,98.36
2018-04-14T05:33:12.345Z,98.25
2018-04-14T05:35:39.830Z,98.56
2018-04-14T05:38:07.505Z,98.53
2018-04-14T05:40:35.001Z,98.38
2018-04-14T05:43:02.491Z,98.74
2018-04-14T05:45:30.029Z,99.10
2018-04-14T05:47:57.517Z,99.05
2018-04-14T05:50:25.049Z,98.45
2018-04-14T05:52:52.537Z,97.41
2018-04-14T05:55:20.029Z,97.21
2018-04-14T05:57:47.549Z,96.00
2018-04-14T06:00:15.073Z,96.29
2018-04-14T06:02:42.794Z,96.80
2018-04-14T06:05:10.292Z,96.39
2018-04-14T06:07:37.768Z,97.17
2018-04-14T06:10:05.269Z,96.26
2018-04-14T06:12:32.744Z,95.46
2018-04-14T06:15:00.295Z,95.33
2018-04-14T06:17:27.749Z,93.11
2018-04-14T06:19:55.259Z,91.78
2018-04-14T06:22:22.829Z,93.43
2018-04-14T06:24:50.289Z,91.80
2018-04-14T06:27:17.964Z,92.59
2018-04-14T06:29:45.449Z,94.24
2018-04-14T06:32:12.932Z,93.72
2018-04-14T06:34:40.443Z,93.79
2018-04-14T06:37:07.917Z,94.49
2018-04-14T06:39:35.427Z,94.47
2018-04-14T06:42:02.916Z,94.57
2018-04-14T06:44:30.401Z,94.57
2018-04-14T06:46:57.916Z,94.51
2018-04-14T06:49:25.390Z,94.66
2018-04-14T06:51:53.116Z,93.35
2018-04-14T06:54:20.596Z,92.54
2018-04-14T06:56:48.075Z,93.39
2018-04-14T06:59:15.617Z,94.00
2018-04-14T07:01:43.116Z,94.06
2018-04-14T07:04:10.771Z,93.65
2018-04-14T07:06:38.254Z,91.90
2018-04-14T07:09:06.449Z,89.84
2018-04-14T07:11:33.945Z,88.23
2018-04-14T07:14:01.421Z,87.14
2018-04-14T07:16:29.019Z,87.14
2018-04-14T07:18:56.513Z,86.08
2018-04-14T07:21:24.461Z,86.79
2018-04-14T07:23:51.997Z,86.83
2018-04-14T07:26:19.495Z,85.00
2018-04-14T07:28:47.308Z,86.98
2018-04-14T07:31:14.802Z,84.08
2018-04-14T07:33:42.305Z,83.17
2018-04-14T07:36:09.805Z,86.33
2018-04-14T07:38:37.293Z,85.78
2018-04-14T07:41:04.941Z,84.97
2018-04-14T07:43:32.441Z,81.74
2018-04-14T07:45:59.931Z,82.11
2018-04-14T07:48:27.472Z,83.33
2018-04-14T07:50:54.960Z,80.61
2018-04-14T07:53:22.625Z,80.02
2018-04-14T07:55:50.109Z,79.30
2018-04-14T07:58:17.619Z,79.79
2018-04-14T08:00:45.161Z,80.64
2018-04-14T08:03:12.665Z,81.64
2018-04-14T08:05:40.302Z,81.29
2018-04-14T08:08:07.798Z,79.05
2018-04-14T08:10:35.285Z,79.39
2018-04-14T08:13:02.810Z,77.77
2018-04-14T08:15:30.449Z,77.27
2018-04-14T08:17:57.985Z,77.77
2018-04-14T08:20:25.465Z,77.18
2018-04-14T08:22:53.014Z,76.42
2018-04-14T08:25:20.529Z,75.71
2018-04-14T08:27:48.008Z,77.42
2018-04-14T08:30:15.542Z,76.19
2018-04-14T08:32:44.414Z,75.00
2018-04-14T08:35:11.922Z,75.02
2018-04-14T08:37:39.425Z,74.71
2018-04-14T08:40:06.904Z,75.06
2018-04-14T08:42:35.001Z,74.00
2018-04-14T08:45:02.506Z,73.88
2018-04-14T08:47:29.989Z,74.58
2018-04-14T08:49:57.498Z,74.76
2018-04-14T08:52:25.005Z,72.38
2018-04-14T08:54:52.541Z,72.87
2018-04-14T08:57:20.047Z,73.92
2018-04-14T08:59:47.545Z,74.11
2018-04-14T09:02:15.049Z,75.37
2018-04-14T09:04:42.525Z,73.08
2018-04-14T09:07:10.196Z,71.46
2018-04-14T09:09:37.684Z,71.32
2018-04-14T09:12:05.228Z,70.43
2018-04-14T09:14:32.764Z,70.00
2018-04-14T09:17:00.301Z,69.79
2018-04-14T09:19:28.326Z,69.29
2018-04-14T09:21:55.809Z,69.87
2018-04-14T09:24:23.318Z,69.48
2018-04-14T09:26:50.833Z,67.73
2018-04-14T09:29:18.321Z,68.01
2018-04-14T09:31:46.213Z,66.79
2018-04-14T09:34:13.753Z,67.12
2018-04-14T09:36:41.232Z,65.59
2018-04-14T09:39:08.737Z,66.91
2018-04-14T09:41:36.222Z,66.71
2018-04-14T09:44:03.801Z,67.52
2018-04-14T09:46:31.296Z,67.69
2018-04-14T09:48:58.793Z,66.87
2018-04-14T09:51:26.294Z,67.07
2018-04-14T09:53:53.786Z,66.98
2018-04-14T09:56:21.841Z,65.35
2018-04-14T09:58:49.334Z,66.13
2018-04-14T10:01:22.518Z,66.37
2018-04-14T10:03:50.865Z,62.55
2018-04-14T10:06:24.485Z,63.66
2018-04-14T10:08:51.976Z,64.08
2018-04-14T10:11:19.481Z,63.95
2018-04-14T10:13:47.004Z,63.11
2018-04-14T10:16:14.492Z,63.95
2018-04-14T10:18:42.204Z,62.52
2018-04-14T10:21:09.685Z,62.25
2018-04-14T10:23:37.460Z,62.91
2018-04-14T10:26:04.966Z,63.47
2018-04-14T10:28:32.441Z,63.64
2018-04-14T10:30:59.973Z,63.57
2018-04-14T10:33:27.457Z,62.28
2018-04-14T10:35:54.950Z,61.01
2018-04-14T10:38:22.469Z,58.58
2018-04-14T10:40:49.957Z,57.92
2018-04-14T10:43:17.801Z,58.24
2018-04-14T10:45:45.305Z,58.08
2018-04-14T10:48:12.793Z,57.70
2018-04-14T10:50:40.293Z,57.89
2018-04-14T10:53:07.778Z,59.39
2018-04-14T10:55:35.452Z,56.56
2018-04-14T10:58:02.947Z,56.67
2018-04-14T11:00:30.429Z,56.71
2018-04-14T11:02:57.929Z,55.85
2018-04-14T11:05:25.408Z,55.31
2018-04-14T11:07:53.248Z,55.92
2018-04-14T11:10:20.753Z,55.29
2018-04-14T11:12:48.264Z,55.25
2018-04-14T11:15:15.775Z,55.98
2018-04-14T11:17:43.277Z,55.63
2018-04-14T11:20:10.810Z,54.54
2018-04-14T11:22:38.337Z,55.17
2018-04-14T11:25:05.832Z,54.39
2018-04-14T11:27:33.336Z,56.16
2018-04-14T11:30:00.839Z,54.94
2018-04-14T11:32:28.623Z,54.98
2018-04-14T11:34:56.117Z,55.28
2018-04-14T11:37:23.601Z,55.87
2018-04-14T11:39:51.107Z,55.39
2018-04-14T11:42:18.613Z,55.69
2018-04-14T11:44:46.386Z,60.15
2018-04-14T11:47:13.869Z,59.50
2018-04-14T11:49:41.348Z,57.95
2018-04-14T11:52:08.854Z,56.65
2018-04-14T11:54:36.353Z,55.63
2018-04-14T11:57:04.037Z,56.33
2018-04-14T11:59:31.534Z,56.80
2018-04-14T12:01:59.033Z,56.91
2018-04-14T12:04:26.537Z,57.83
2018-04-14T12:06:54.045Z,57.51
2018-04-14T12:09:21.808Z,53.75
2018-04-14T12:11:49.289Z,54.44
2018-04-14T12:14:16.765Z,54.76
2018-04-14T12:16:44.292Z,53.62
2018-04-14T12:19:11.780Z,54.13
2018-04-14T12:21:39.329Z,54.25
2018-04-14T12:24:06.841Z,54.43
2018-04-14T12:26:34.324Z,54.20
2018-04-14T12:29:01.837Z,54.07
2018-04-14T12:31:29.333Z,54.49
2018-04-14T12:33:57.007Z,54.75
2018-04-14T12:36:24.513Z,54.94
2018-04-14T12:38:52.001Z,55.02
2018-04-14T12:41:19.529Z,55.61
2018-04-14T12:43:47.021Z,54.68
2018-04-14T12:46:14.768Z,53.42
2018-04-14T12:48:42.245Z,54.70
2018-04-14T12:51:09.725Z,55.03
2018-04-14T12:53:37.240Z,57.93
2018-04-14T12:56:04.721Z,51.89
2018-04-14T12:58:32.241Z,55.35
2018-04-14T13:00:59.721Z,54.50
2018-04-14T13:03:27.207Z,52.33
2018-04-14T13:05:54.719Z,53.18
2018-04-14T13:08:22.201Z,50.82
2018-04-14T13:10:49.865Z,49.27
2018-04-14T13:13:17.351Z,55.12
2018-04-14T13:15:44.849Z,53.00
2018-04-14T13:18:12.350Z,52.12
2018-04-14T13:20:39.831Z,44.16
2018-04-14T13:23:07.625Z,42.87
2018-04-14T13:25:35.104Z,43.87
2018-04-14T13:28:02.588Z,42.46
2018-04-14T13:30:30.093Z,42.28
2018-04-14T13:32:57.590Z,40.18
2018-04-14T13:35:25.280Z,40.94
2018-04-14T13:37:52.774Z,41.38
2018-04-14T13:40:20.261Z,40.06
2018-04-14T13:42:47.769Z,41.48
2018-04-14T13:45:15.250Z,41.86
2018-04-14T13:47:42.852Z,41.01
2018-04-14T13:50:10.341Z,41.84
2018-04-14T13:52:37.825Z,41.31
2018-04-14T13:55:05.329Z,41.41
2018-04-14T13:57:32.835Z,40.65
2018-04-14T14:00:00.365Z,39.85
2018-04-14T14:02:27.852Z,40.30
2018-04-14T14:04:55.331Z,41.23
2018-04-14T14:07:22.837Z,41.16
2018-04-14T14:09:50.333Z,39.97
2018-04-14T14:12:17.866Z,40.31
2018-04-14T14:14:45.418Z,41.51
2018-04-14T14:17:12.898Z,42.15
2018-04-14T14:19:40.400Z,40.82
2018-04-14T14:22:07.930Z,41.10
2018-04-14T14:24:35.418Z,41.21
2018-04-14T14:27:02.932Z,41.68
2018-04-14T14:29:30.429Z,40.79
2018-04-14T14:31:57.918Z,40.67
2018-04-14T14:34:25.438Z,40.12
2018-04-14T14:36:52.937Z,40.91
2018-04-14T14:39:20.436Z,40.76
2018-04-14T14:41:47.969Z,40.58
2018-04-14T14:44:15.454Z,41.51
2018-04-14T14:46:42.949Z,40.60
2018-04-14T14:49:10.481Z,41.07
2018-04-14T14:54:11.814Z,40.51
2018-04-14T14:56:39.317Z,39.33
2018-04-14T14:59:06.850Z,38.88
2018-04-14T15:01:34.349Z,40.59
2018-04-14T15:04:01.841Z,39.90
2018-04-14T15:06:29.354Z,39.74
2018-04-14T15:08:56.856Z,40.02
2018-04-14T15:11:24.363Z,40.26
2018-04-14T15:13:51.929Z,40.00
2018-04-14T15:16:19.504Z,41.30
2018-04-14T15:18:46.994Z,40.84
2018-04-14T15:21:14.505Z,41.56
2018-04-14T15:23:41.989Z,43.46
2018-04-14T15:26:09.486Z,45.51
2018-04-14T15:28:37.181Z,46.32
2018-04-14T15:31:04.657Z,46.57
2018-04-14T15:33:32.145Z,46.53
2018-04-14T15:35:59.890Z,46.87
2018-04-14T15:38:27.402Z,46.66
2018-04-14T15:40:54.887Z,47.95
2018-04-14T15:43:22.631Z,47.65
2018-04-14T15:45:50.125Z,48.19
2018-04-14T15:48:17.628Z,48.53
2018-04-14T15:50:45.332Z,48.46
2018-04-14T15:53:12.825Z,48.70
2018-04-14T15:55:41.246Z,48.52
2018-04-14T15:58:09.230Z,49.45
2018-04-14T16:00:36.681Z,49.54
2018-04-14T16:03:04.161Z,50.19
2018-04-14T16:05:31.681Z,49.98
2018-04-14T16:07:59.199Z,50.94
2018-04-14T16:10:26.694Z,50.44
2018-04-14T16:12:54.822Z,50.41
2018-04-14T16:15:22.306Z,49.65
2018-04-14T16:17:49.812Z,49.18
2018-04-14T16:20:17.549Z,49.05
2018-04-14T16:22:45.037Z,49.43
2018-04-14T16:25:12.547Z,49.75
2018-04-14T16:27:40.068Z,49.80
2018-04-14T16:30:07.561Z,50.04
2018-04-14T16:32:35.300Z,50.54
2018-04-14T16:35:02.821Z,50.57
2018-04-14T16:37:30.297Z,50.34
2018-04-14T16:39:58.060Z,51.12
2018-04-14T16:42:25.587Z,51.33
2018-04-14T16:44:53.077Z,51.93
2018-04-14T16:47:20.560Z,52.08
2018-04-14T16:49:48.108Z,52.21
2018-04-14T16:52:15.623Z,52.77
2018-04-14T16:54:43.109Z,53.17
2018-04-14T16:57:10.640Z,52.72
2018-04-14T16:59:38.141Z,52.91
2018-04-14T17:02:05.632Z,53.04
2018-04-14T17:04:33.413Z,53.86
2018-04-14T17:07:00.900Z,54.02
2018-04-14T17:09:28.393Z,54.74
2018-04-14T17:11:56.061Z,54.99
2018-04-14T17:14:23.547Z,54.79
2018-04-14T17:16:51.032Z,55.90
2018-04-14T17:19:18.571Z,56.19
2018-04-14T17:21:46.065Z,57.29
2018-04-14T17:24:13.567Z,57.29
2018-04-14T17:26:41.461Z,57.90
2018-04-14T17:29:08.946Z,58.37
2018-04-14T17:31:36.456Z,58.39
2018-04-14T17:34:03.990Z,59.26
2018-04-14T17:36:31.482Z,59.44
2018-04-14T17:38:58.977Z,59.66
2018-04-14T17:41:26.697Z,59.54
2018-04-14T17:43:54.193Z,60.35
2018-04-14T17:46:21.673Z,59.71
2018-04-14T17:48:49.225Z,59.92
2018-04-14T17:51:16.715Z,59.83
2018-04-14T17:53:44.223Z,59.99
2018-04-14T17:56:11.926Z,60.58
2018-04-14T17:58:39.421Z,61.05
2018-04-14T18:01:06.923Z,61.66
2018-04-14T18:03:34.478Z,61.84
2018-04-14T18:06:02.021Z,63.16
2018-04-14T18:08:29.517Z,63.52
2018-04-14T18:10:57.055Z,64.14
2018-04-14T18:13:24.544Z,64.81
2018-04-14T18:15:52.095Z,64.89
2018-04-14T18:18:19.881Z,66.08
2018-04-14T18:20:47.385Z,64.33
2018-04-14T18:23:14.880Z,64.62
2018-04-14T18:25:42.555Z,64.88
2018-04-14T18:28:10.096Z,64.83
2018-04-14T18:30:37.614Z,67.50
2018-04-14T18:33:05.169Z,66.44
2018-04-14T18:35:34.360Z,67.67
2018-04-14T18:38:02.297Z,68.02
2018-04-14T18:40:29.854Z,69.40
2018-04-14T18:42:57.378Z,69.42
2018-04-14T18:45:27.245Z,69.74
2018-04-14T18:47:54.819Z,70.33
2018-04-14T18:50:22.598Z,70.98
2018-04-14T18:52:50.115Z,71.04
2018-04-14T18:55:17.635Z,70.62
2018-04-14T18:57:47.770Z,70.39
2018-04-14T19:00:15.330Z,70.98
2018-04-14T19:02:42.821Z,71.87
2018-04-14T19:05:11.698Z,72.20
2018-04-14T19:07:41.108Z,71.71
2018-04-14T19:10:10.060Z,72.17
2018-04-14T19:12:39.684Z,71.66
2018-04-14T19:15:07.434Z,72.14
2018-04-14T19:17:35.287Z,72.22
2018-04-14T19:20:03.172Z,71.78
2018-04-14T19:22:30.998Z,72.04
2018-04-14T19:24:58.668Z,72.15
2018-04-14T19:27:26.206Z,71.95
2018-04-14T19:29:54.641Z,71.44
2018-04-14T19:32:22.207Z,71.71
2018-04-14T19:34:50.398Z,73.22
2018-04-14T19:37:19.027Z,73.42
2018-04-14T19:39:46.533Z,73.49
2018-04-14T19:42:15.547Z,71.51
2018-04-14T19:44:43.044Z,71.59
2018-04-14T19:47:10.916Z,70.95
2018-04-14T19:49:38.435Z,72.62
2018-04-14T19:52:05.936Z,72.21
2018-04-14T19:54:34.143Z,72.21
2018-04-14T19:57:01.644Z,72.41
2018-04-14T19:59:30.013Z,73.39
2018-04-14T20:01:58.294Z,73.35
2018-04-14T20:04:25.814Z,72.71
2018-04-14T20:06:53.739Z,72.28
2018-04-14T20:09:21.246Z,74.46
2018-04-14T20:11:48.977Z,75.51
2018-04-14T20:14:16.559Z,76.19
2018-04-14T20:16:44.063Z,76.22
2018-04-14T20:19:11.612Z,77.01
2018-04-14T20:21:39.159Z,76.83
2018-04-14T20:24:06.911Z,77.12
2018-04-14T20:26:34.404Z,76.85
2018-04-14T20:29:02.422Z,76.69
2018-04-14T20:31:29.945Z,77.79
2018-04-14T20:33:57.448Z,78.31
2018-04-14T20:36:24.989Z,79.42
2018-04-14T20:38:52.498Z,78.71
2018-04-14T20:41:20.030Z,78.49
2018-04-14T20:43:47.562Z,78.30
2018-04-14T20:46:15.056Z,78.44
2018-04-14T20:48:42.588Z,78.87
2018-04-14T20:51:10.126Z,78.39
2018-04-14T20:53:37.644Z,78.89
2018-04-14T20:56:05.172Z,79.15
2018-04-14T20:58:32.664Z,79.42
2018-04-14T21:01:00.162Z,80.11
2018-04-14T21:03:27.681Z,79.83
2018-04-14T21:05:56.295Z,80.14
2018-04-14T21:08:23.834Z,80.31
2018-04-14T21:10:51.353Z,79.26
2018-04-14T21:13:18.901Z,79.78
2018-04-14T21:15:46.421Z,80.82
2018-04-14T21:18:13.925Z,80.54
2018-04-14T21:20:41.421Z,80.73
2018-04-14T21:23:08.956Z,80.40
2018-04-14T21:25:36.452Z,80.28
2018-04-14T21:28:03.950Z,80.80
2018-04-14T21:30:31.710Z,80.79
2018-04-14T21:32:59.190Z,81.10
2018-04-14T21:35:26.842Z,81.15
2018-04-14T21:37:54.508Z,81.05
2018-04-14T21:40:22.010Z,81.82
2018-04-14T21:42:49.494Z,81.56
2018-04-14T21:45:17.222Z,81.28
2018-04-14T21:47:44.700Z,81.11
2018-04-14T21:50:12.193Z,81.31
2018-04-14T21:52:39.881Z,81.29
2018-04-14T21:55:07.361Z,81.74
2018-04-14T21:57:34.849Z,81.88
2018-04-14T22:00:02.417Z,82.42
2018-04-14T22:02:29.962Z,81.67
2018-04-14T22:04:57.453Z,81.88
2018-04-14T22:07:25.166Z,83.24
2018-04-14T22:09:52.661Z,83.55
2018-04-14T22:12:20.149Z,82.73
2018-04-14T22:14:47.877Z,82.12
2018-04-14T22:17:15.371Z,81.80
2018-04-14T22:19:42.865Z,81.76
2018-04-14T22:22:10.380Z,81.72
2018-04-14T22:24:37.869Z,81.43
2018-04-14T22:27:05.349Z,82.35
2018-04-14T22:29:33.015Z,82.82
2018-04-14T22:32:00.494Z,82.45
2018-04-14T22:34:27.972Z,82.44
2018-04-14T22:36:55.748Z,82.62
2018-04-14T22:39:23.233Z,83.67
2018-04-14T22:41:50.713Z,83.10
2018-04-14T22:44:18.441Z,83.57
2018-04-14T22:46:45.926Z,83.12
2018-04-14T22:49:13.409Z,82.84
2018-04-14T22:51:40.921Z,83.10
2018-04-14T22:54:08.404Z,83.80
2018-04-14T22:56:36.295Z,84.33
2018-04-14T22:59:03.804Z,83.72
2018-04-14T23:01:31.297Z,83.22
2018-04-14T23:03:58.804Z,83.12
2018-04-14T23:06:26.305Z,83.02
2018-04-14T23:08:53.952Z,82.95
2018-04-14T23:11:21.435Z,82.97
2018-04-14T23:13:48.967Z,82.88
2018-04-14T23:16:16.454Z,82.58
2018-04-14T23:18:43.936Z,82.83
2018-04-14T23:21:11.605Z,83.34
2018-04-14T23:23:39.105Z,83.55
2018-04-14T23:26:06.585Z,84.27
2018-04-14T23:28:34.094Z,83.58
2018-04-14T23:31:01.580Z,84.31
2018-04-14T23:33:29.362Z,83.87
2018-04-14T23:35:57.005Z,83.31
2018-04-14T23:38:24.509Z,83.73
2018-04-14T23:40:52.021Z,83.87
2018-04-14T23:43:19.500Z,83.29
2018-04-14T23:48:15.420Z,83.82
2018-04-14T23:50:42.901Z,84.57
2018-04-14T23:53:10.410Z,84.12
2018-04-14T23:55:37.897Z,83.78
2018-04-14T23:58:05.593Z,83.29
